sensor_id;sensor_type;location;lat;lon;timestamp;pressure;altitude;pressure_sealevel;temperature;humidity
19447;BME280;9862;49.462;11.054;2023-05-24T00:01:45;98327.03;;;13.86;100.00
19447;BME280;9862;49.462;11.054;2023-05-24T00:04:12;98328.16;;;13.97;100.00
19447;BME280;9862;49.462;11.054;2023-05-24T00:06:39;98327.94;;;13.98;100.00
19447;BME280;9862;49.462;11.054;2023-05-24T00:09:06;98328.16;;;13.97;100.00
19447;BME280;9862;49.462;11.054;2023-05-24T00:11:33;98326.69;;;13.83;100.00
19447;BME280;9862;49.462;11.054;2023-05-24T00:14:00;98316.03;;;13.76;100.00
19447;BME280;9862;49.462;11.054;2023-05-24T00:16:28;98324.88;;;13.77;100.00
19447;BME280;9862;49.462;11.054;2023-05-24T00:18:54;98319.47;;;13.83;100.00
19447;BME280;9862;49.462;11.054;2023-05-24T00:21:23;98314.03;;;13.71;100.00
19447;BME280;9862;49.462;11.054;2023-05-24T00:23:50;98309.25;;;13.55;100.00
19447;BME280;9862;49.462;11.054;2023-05-24T00:26:17;98320.53;;;13.57;100.00
19447;BME280;9862;49.462;11.054;2023-05-24T00:28:43;98310.94;;;13.50;100.00
19447;BME280;9862;49.462;11.054;2023-05-24T00:31:10;98303.91;;;13.55;100.00
19447;BME280;9862;49.462;11.054;2023-05-24T00:33:38;98305.84;;;13.66;100.00
19447;BME280;9862;49.462;11.054;2023-05-24T00:36:05;98305.53;;;13.56;100.00
19447;BME280;9862;49.462;11.054;2023-05-24T00:38:32;98308.94;;;13.45;100.00
19447;BME280;9862;49.462;11.054;2023-05-24T00:40:58;98297.94;;;13.35;100.00
19447;BME280;9862;49.462;11.054;2023-05-24T00:43:25;98306.81;;;13.54;100.00
19447;BME280;9862;49.462;11.054;2023-05-24T00:46:11;98298.22;;;13.27;100.00
19447;BME280;9862;49.462;11.054;2023-05-24T00:48:41;98297.00;;;13.48;100.00
19447;BME280;9862;49.462;11.054;2023-05-24T00:51:08;98289.94;;;13.53;100.00
19447;BME280;9862;49.462;11.054;2023-05-24T00:53:36;98302.22;;;13.61;100.00
19447;BME280;9862;49.462;11.054;2023-05-24T00:56:03;98310.72;;;13.33;100.00
19447;BME280;9862;49.462;11.054;2023-05-24T00:58:30;98302.59;;;13.14;100.00
19447;BME280;9862;49.462;11.054;2023-05-24T01:00:58;98302.59;;;13.14;100.00
19447;BME280;9862;49.462;11.054;2023-05-24T01:03:26;98300.44;;;13.30;100.00
19447;BME280;9862;49.462;11.054;2023-05-24T01:05:55;98308.63;;;13.35;100.00
19447;BME280;9862;49.462;11.054;2023-05-24T01:08:33;98299.81;;;13.53;100.00
19447;BME280;9862;49.462;11.054;2023-05-24T01:11:11;98299.72;;;13.41;100.00
19447;BME280;9862;49.462;11.054;2023-05-24T01:13:45;98293.91;;;13.26;100.00
19447;BME280;9862;49.462;11.054;2023-05-24T01:16:16;98293.09;;;13.25;100.00
19447;BME280;9862;49.462;11.054;2023-05-24T01:18:47;98300.84;;;13.33;100.00
19447;BME280;9862;49.462;11.054;2023-05-24T01:21:36;98295.00;;;13.43;100.00
19447;BME280;9862;49.462;11.054;2023-05-24T01:24:13;98291.69;;;13.41;100.00
19447;BME280;9862;49.462;11.054;2023-05-24T01:26:57;98294.69;;;13.69;100.00
19447;BME280;9862;49.462;11.054;2023-05-24T01:29:28;98294.88;;;13.74;100.00
19447;BME280;9862;49.462;11.054;2023-05-24T01:31:56;98295.91;;;13.73;100.00
19447;BME280;9862;49.462;11.054;2023-05-24T01:34:24;98292.31;;;13.80;100.00
19447;BME280;9862;49.462;11.054;2023-05-24T01:36:50;98289.66;;;13.80;100.00
19447;BME280;9862;49.462;11.054;2023-05-24T01:39:17;98291.22;;;13.87;100.00
19447;BME280;9862;49.462;11.054;2023-05-24T01:41:50;98294.13;;;13.86;100.00
19447;BME280;9862;49.462;11.054;2023-05-24T01:44:28;98291.22;;;13.87;100.00
19447;BME280;9862;49.462;11.054;2023-05-24T01:47:01;98293.06;;;13.87;100.00
19447;BME280;9862;49.462;11.054;2023-05-24T01:49:34;98297.78;;;13.73;100.00
19447;BME280;9862;49.462;11.054;2023-05-24T01:52:07;98292.19;;;13.74;100.00
19447;BME280;9862;49.462;11.054;2023-05-24T01:54:37;98299.41;;;13.74;100.00
19447;BME280;9862;49.462;11.054;2023-05-24T01:57:06;98294.69;;;13.69;100.00
19447;BME280;9862;49.462;11.054;2023-05-24T01:59:37;98297.69;;;13.61;100.00
19447;BME280;9862;49.462;11.054;2023-05-24T02:02:05;98289.00;;;13.66;100.00
19447;BME280;9862;49.462;11.054;2023-05-24T02:04:32;98292.47;;;13.66;100.00
19447;BME280;9862;49.462;11.054;2023-05-24T02:06:59;98294.69;;;13.69;100.00
19447;BME280;9862;49.462;11.054;2023-05-24T02:09:26;98297.53;;;13.74;100.00
19447;BME280;9862;49.462;11.054;2023-05-24T02:11:55;98299.03;;;13.70;100.00
19447;BME280;9862;49.462;11.054;2023-05-24T02:14:24;98302.66;;;13.76;100.00
19447;BME280;9862;49.462;11.054;2023-05-24T02:16:54;98304.00;;;13.85;100.00
19447;BME280;9862;49.462;11.054;2023-05-24T02:19:23;98302.16;;;13.86;100.00
19447;BME280;9862;49.462;11.054;2023-05-24T02:21:50;98297.53;;;13.74;100.00
19447;BME280;9862;49.462;11.054;2023-05-24T02:24:17;98301.19;;;13.80;100.00
19447;BME280;9862;49.462;11.054;2023-05-24T02:26:44;98299.84;;;13.89;100.00
19447;BME280;9862;49.462;11.054;2023-05-24T02:29:10;98302.38;;;13.84;100.00
19447;BME280;9862;49.462;11.054;2023-05-24T02:31:37;98300.69;;;13.90;100.00
19447;BME280;9862;49.462;11.054;2023-05-24T02:34:05;98303.94;;;13.92;100.00
19447;BME280;9862;49.462;11.054;2023-05-24T02:36:33;98298.94;;;13.95;100.00
19447;BME280;9862;49.462;11.054;2023-05-24T02:39:01;98296.88;;;13.97;100.00
19447;BME280;9862;49.462;11.054;2023-05-24T02:41:28;98296.78;;;14.04;100.00
19447;BME280;9862;49.462;11.054;2023-05-24T02:43:55;98293.31;;;14.03;100.00
19447;BME280;9862;49.462;11.054;2023-05-24T02:46:22;98292.44;;;13.91;100.00
19447;BME280;9862;49.462;11.054;2023-05-24T02:48:49;98292.44;;;13.91;100.00
19447;BME280;9862;49.462;11.054;2023-05-24T02:51:17;98285.34;;;13.97;100.00
19447;BME280;9862;49.462;11.054;2023-05-24T02:53:44;98294.41;;;13.96;100.00
19447;BME280;9862;49.462;11.054;2023-05-24T02:56:10;98299.19;;;13.94;100.00
19447;BME280;9862;49.462;11.054;2023-05-24T02:58:38;98293.97;;;13.99;100.00
19447;BME280;9862;49.462;11.054;2023-05-24T03:01:05;98288.19;;;14.02;100.00
19447;BME280;9862;49.462;11.054;2023-05-24T03:03:32;98286.56;;;14.01;100.00
19447;BME280;9862;49.462;11.054;2023-05-24T03:05:59;98301.41;;;13.97;100.00
19447;BME280;9862;49.462;11.054;2023-05-24T03:08:27;98296.78;;;13.86;100.00
19447;BME280;9862;49.462;11.054;2023-05-24T03:10:54;98312.84;;;13.86;100.00
19447;BME280;9862;49.462;11.054;2023-05-24T03:13:21;98306.75;;;13.79;100.00
19447;BME280;9862;49.462;11.054;2023-05-24T03:15:47;98314.34;;;13.82;100.00
19447;BME280;9862;49.462;11.054;2023-05-24T03:18:14;98309.72;;;13.89;100.00
19447;BME280;9862;49.462;11.054;2023-05-24T03:20:41;98311.06;;;13.80;100.00
19447;BME280;9862;49.462;11.054;2023-05-24T03:23:07;98309.72;;;13.89;100.00
19447;BME280;9862;49.462;11.054;2023-05-24T03:25:36;98303.34;;;13.90;100.00
19447;BME280;9862;49.462;11.054;2023-05-24T03:28:03;98311.28;;;13.78;100.00
19447;BME280;9862;49.462;11.054;2023-05-24T03:30:29;98306.22;;;13.88;100.00
19447;BME280;9862;49.462;11.054;2023-05-24T03:32:56;98313.31;;;14.01;100.00
19447;BME280;9862;49.462;11.054;2023-05-24T03:35:23;98307.22;;;13.94;100.00
19447;BME280;9862;49.462;11.054;2023-05-24T03:37:49;98311.66;;;13.82;100.00
19447;BME280;9862;49.462;11.054;2023-05-24T03:40:17;98313.00;;;13.72;100.00
19447;BME280;9862;49.462;11.054;2023-05-24T03:42:45;98312.47;;;13.64;100.00
19447;BME280;9862;49.462;11.054;2023-05-24T03:45:12;98308.53;;;13.66;100.00
19447;BME280;9862;49.462;11.054;2023-05-24T03:47:38;98304.28;;;13.59;100.00
19447;BME280;9862;49.462;11.054;2023-05-24T03:50:06;98314.09;;;13.65;100.00
19447;BME280;9862;49.462;11.054;2023-05-24T03:52:32;98314.75;;;13.60;100.00
19447;BME280;9862;49.462;11.054;2023-05-24T03:54:59;98311.66;;;13.63;100.00
19447;BME280;9862;49.462;11.054;2023-05-24T03:57:26;98307.78;;;13.59;100.00
19447;BME280;9862;49.462;11.054;2023-05-24T03:59:54;98312.16;;;13.29;100.00
19447;BME280;9862;49.462;11.054;2023-05-24T04:02:20;98312.75;;;13.31;100.00
19447;BME280;9862;49.462;11.054;2023-05-24T04:04:47;98314.63;;;13.30;100.00
19447;BME280;9862;49.462;11.054;2023-05-24T04:07:13;98318.19;;;13.17;100.00
19447;BME280;9862;49.462;11.054;2023-05-24T04:09:41;98312.03;;;13.24;100.00
19447;BME280;9862;49.462;11.054;2023-05-24T04:12:07;98319.00;;;13.25;100.00
19447;BME280;9862;49.462;11.054;2023-05-24T04:14:34;98323.69;;;13.29;100.00
19447;BME280;9862;49.462;11.054;2023-05-24T04:17:02;98323.91;;;13.28;100.00
19447;BME280;9862;49.462;11.054;2023-05-24T04:19:30;98317.41;;;13.10;100.00
19447;BME280;9862;49.462;11.054;2023-05-24T04:21:57;98320.72;;;13.12;100.00
19447;BME280;9862;49.462;11.054;2023-05-24T04:24:23;98317.59;;;13.22;100.00
19447;BME280;9862;49.462;11.054;2023-05-24T04:26:50;98321.09;;;13.23;100.00
19447;BME280;9862;49.462;11.054;2023-05-24T04:29:17;98322.09;;;13.22;100.00
19447;BME280;9862;49.462;11.054;2023-05-24T04:31:44;98325.22;;;12.87;100.00
19447;BME280;9862;49.462;11.054;2023-05-24T04:34:14;98317.09;;;13.00;100.00
19447;BME280;9862;49.462;11.054;2023-05-24T04:36:40;98326.06;;;13.12;100.00
19447;BME280;9862;49.462;11.054;2023-05-24T04:39:07;98318.56;;;13.28;100.00
19447;BME280;9862;49.462;11.054;2023-05-24T04:41:35;98319.22;;;12.92;100.00
19447;BME280;9862;49.462;11.054;2023-05-24T04:44:03;98318.91;;;13.06;100.00
19447;BME280;9862;49.462;11.054;2023-05-24T04:46:29;98323.53;;;13.17;100.00
19447;BME280;9862;49.462;11.054;2023-05-24T04:48:56;98326.84;;;13.20;100.00
19447;BME280;9862;49.462;11.054;2023-05-24T04:51:24;98328.28;;;13.15;100.00
19447;BME280;9862;49.462;11.054;2023-05-24T04:53:51;98327.66;;;13.20;100.00
19447;BME280;9862;49.462;11.054;2023-05-24T04:56:18;98324.97;;;13.20;100.00
19447;BME280;9862;49.462;11.054;2023-05-24T04:58:44;98318.41;;;13.23;100.00
19447;BME280;9862;49.462;11.054;2023-05-24T05:01:11;98320.19;;;13.29;100.00
19447;BME280;9862;49.462;11.054;2023-05-24T05:03:38;98315.28;;;13.26;100.00
19447;BME280;9862;49.462;11.054;2023-05-24T05:06:05;98321.44;;;13.26;100.00
19447;BME280;9862;49.462;11.054;2023-05-24T05:08:33;98317.84;;;13.39;100.00
19447;BME280;9862;49.462;11.054;2023-05-24T05:11:00;98316.78;;;13.40;100.00
19447;BME280;9862;49.462;11.054;2023-05-24T05:13:27;98312.22;;;13.47;100.00
19447;BME280;9862;49.462;11.054;2023-05-24T05:15:53;98322.09;;;13.46;100.00
19447;BME280;9862;49.462;11.054;2023-05-24T05:18:20;98315.25;;;13.51;100.00
19447;BME280;9862;49.462;11.054;2023-05-24T05:20:46;98319.53;;;13.33;100.00
19447;BME280;9862;49.462;11.054;2023-05-24T05:23:13;98327.56;;;13.33;100.00
19447;BME280;9862;49.462;11.054;2023-05-24T05:25:41;98323.34;;;13.44;100.00
19447;BME280;9862;49.462;11.054;2023-05-24T05:28:08;98325.13;;;13.50;100.00
19447;BME280;9862;49.462;11.054;2023-05-24T05:30:35;98331.84;;;13.59;100.00
19447;BME280;9862;49.462;11.054;2023-05-24T05:33:01;98327.81;;;13.50;100.00
19447;BME280;9862;49.462;11.054;2023-05-24T05:35:30;98328.03;;;13.49;100.00
19447;BME280;9862;49.462;11.054;2023-05-24T05:37:56;98329.56;;;13.38;100.00
19447;BME280;9862;49.462;11.054;2023-05-24T05:40:23;98334.69;;;13.14;100.00
19447;BME280;9862;49.462;11.054;2023-05-24T05:42:51;98340.97;;;12.95;100.00
19447;BME280;9862;49.462;11.054;2023-05-24T05:45:18;98332.78;;;12.90;100.00
19447;BME280;9862;49.462;11.054;2023-05-24T05:47:45;98337.09;;;12.91;100.00
19447;BME280;9862;49.462;11.054;2023-05-24T05:50:11;98335.22;;;12.92;100.00
19447;BME280;9862;49.462;11.054;2023-05-24T05:52:38;98352.66;;;12.63;100.00
19447;BME280;9862;49.462;11.054;2023-05-24T05:55:06;98348.47;;;12.42;100.00
19447;BME280;9862;49.462;11.054;2023-05-24T05:57:33;98351.13;;;12.42;100.00
19447;BME280;9862;49.462;11.054;2023-05-24T06:00:01;98362.38;;;12.50;100.00
19447;BME280;9862;49.462;11.054;2023-05-24T06:02:28;98369.19;;;12.46;100.00
19447;BME280;9862;49.462;11.054;2023-05-24T06:04:55;98360.19;;;12.34;100.00
19447;BME280;9862;49.462;11.054;2023-05-24T06:07:22;98365.13;;;12.30;100.00
19447;BME280;9862;49.462;11.054;2023-05-24T06:09:48;98366.94;;;12.43;100.00
19447;BME280;9862;49.462;11.054;2023-05-24T06:12:15;98371.13;;;12.64;100.00
19447;BME280;9862;49.462;11.054;2023-05-24T06:14:41;98371.31;;;12.76;100.00
19447;BME280;9862;49.462;11.054;2023-05-24T06:17:09;98359.06;;;12.93;100.00
19447;BME280;9862;49.462;11.054;2023-05-24T06:19:36;98364.13;;;13.01;100.00
19447;BME280;9862;49.462;11.054;2023-05-24T06:22:03;98367.06;;;12.93;100.00
19447;BME280;9862;49.462;11.054;2023-05-24T06:24:30;98368.75;;;12.49;100.00
19447;BME280;9862;49.462;11.054;2023-05-24T06:26:59;98372.91;;;12.45;100.00
19447;BME280;9862;49.462;11.054;2023-05-24T06:29:26;98374.56;;;12.40;100.00
19447;BME280;9862;49.462;11.054;2023-05-24T06:31:52;98382.44;;;12.15;100.00
19447;BME280;9862;49.462;11.054;2023-05-24T06:34:20;98378.47;;;12.37;100.00
19447;BME280;9862;49.462;11.054;2023-05-24T06:36:47;98381.00;;;12.64;100.00
19447;BME280;9862;49.462;11.054;2023-05-24T06:39:15;98382.59;;;12.71;100.00
19447;BME280;9862;49.462;11.054;2023-05-24T06:41:42;98393.44;;;12.38;100.00
19447;BME280;9862;49.462;11.054;2023-05-24T06:44:10;98389.09;;;12.50;100.00
19447;BME280;9862;49.462;11.054;2023-05-24T06:46:38;98393.97;;;12.60;100.00
19447;BME280;9862;49.462;11.054;2023-05-24T06:49:05;98396.63;;;12.67;100.00
19447;BME280;9862;49.462;11.054;2023-05-24T06:51:33;98389.47;;;12.92;100.00
19447;BME280;9862;49.462;11.054;2023-05-24T06:54:00;98393.78;;;12.93;100.00
19447;BME280;9862;49.462;11.054;2023-05-24T06:56:27;98389.06;;;12.95;100.00
19447;BME280;9862;49.462;11.054;2023-05-24T06:58:54;98397.00;;;13.08;100.00
19447;BME280;9862;49.462;11.054;2023-05-24T07:01:21;98390.91;;;13.33;100.00
19447;BME280;9862;49.462;11.054;2023-05-24T07:03:47;98395.41;;;13.57;100.00
19447;BME280;9862;49.462;11.054;2023-05-24T07:06:14;98387.19;;;13.59;100.00
19447;BME280;9862;49.462;11.054;2023-05-24T07:08:43;98390.88;;;13.83;100.00
19447;BME280;9862;49.462;11.054;2023-05-24T07:11:11;98385.84;;;13.93;100.00
19447;BME280;9862;49.462;11.054;2023-05-24T07:13:38;98397.81;;;13.65;100.00
19447;BME280;9862;49.462;11.054;2023-05-24T07:16:05;98398.09;;;13.57;100.00
19447;BME280;9862;49.462;11.054;2023-05-24T07:18:32;98402.13;;;13.66;100.00
19447;BME280;9862;49.462;11.054;2023-05-24T07:20:58;98401.69;;;13.69;100.00
19447;BME280;9862;49.462;11.054;2023-05-24T07:23:25;98400.22;;;13.73;100.00
19447;BME280;9862;49.462;11.054;2023-05-24T07:25:53;98404.75;;;13.73;100.00
19447;BME280;9862;49.462;11.054;2023-05-24T07:28:20;98409.06;;;13.74;100.00
19447;BME280;9862;49.462;11.054;2023-05-24T07:30:47;98405.00;;;13.40;100.00
19447;BME280;9862;49.462;11.054;2023-05-24T07:33:14;98412.63;;;13.43;100.00
19447;BME280;9862;49.462;11.054;2023-05-24T07:35:41;98406.31;;;13.62;100.00
19447;BME280;9862;49.462;11.054;2023-05-24T07:38:09;98409.72;;;13.69;100.00
19447;BME280;9862;49.462;11.054;2023-05-24T07:40:36;98406.53;;;13.79;100.00
19447;BME280;9862;49.462;11.054;2023-05-24T07:43:05;98405.66;;;13.85;100.00
19447;BME280;9862;49.462;11.054;2023-05-24T07:45:31;98404.69;;;13.80;100.00
19447;BME280;9862;49.462;11.054;2023-05-24T07:47:58;98404.09;;;13.78;100.00
19447;BME280;9862;49.462;11.054;2023-05-24T07:50:25;98407.50;;;14.10;100.00
19447;BME280;9862;49.462;11.054;2023-05-24T07:52:53;98406.72;;;13.84;100.00
19447;BME280;9862;49.462;11.054;2023-05-24T07:55:20;98412.66;;;13.86;100.00
19447;BME280;9862;49.462;11.054;2023-05-24T07:57:47;98404.41;;;13.88;100.00
19447;BME280;9862;49.462;11.054;2023-05-24T08:00:16;98399.66;;;14.08;100.00
19447;BME280;9862;49.462;11.054;2023-05-24T08:02:44;98405.69;;;14.03;100.00
19447;BME280;9862;49.462;11.054;2023-05-24T08:05:12;98408.31;;;14.10;100.00
19447;BME280;9862;49.462;11.054;2023-05-24T08:07:39;98412.50;;;13.56;100.00
19447;BME280;9862;49.462;11.054;2023-05-24T08:10:08;98407.31;;;13.36;100.00
19447;BME280;9862;49.462;11.054;2023-05-24T08:12:36;98420.56;;;13.25;100.00
19447;BME280;9862;49.462;11.054;2023-05-24T08:15:04;98410.94;;;13.10;100.00
19447;BME280;9862;49.462;11.054;2023-05-24T08:17:33;98412.13;;;13.21;100.00
19447;BME280;9862;49.462;11.054;2023-05-24T08:20:00;98402.44;;;13.27;100.00
19447;BME280;9862;49.462;11.054;2023-05-24T08:22:28;98405.47;;;13.37;100.00
19447;BME280;9862;49.462;11.054;2023-05-24T08:24:55;98414.00;;;13.21;100.00
19447;BME280;9862;49.462;11.054;2023-05-24T08:27:22;98407.25;;;13.11;100.00
19447;BME280;9862;49.462;11.054;2023-05-24T08:29:49;98416.66;;;13.21;100.00
19447;BME280;9862;49.462;11.054;2023-05-24T08:32:15;98413.38;;;13.25;100.00
19447;BME280;9862;49.462;11.054;2023-05-24T08:34:43;98420.19;;;13.46;100.00
19447;BME280;9862;49.462;11.054;2023-05-24T08:37:10;98418.81;;;13.37;100.00
19447;BME280;9862;49.462;11.054;2023-05-24T08:39:39;98423.47;;;13.23;100.00
19447;BME280;9862;49.462;11.054;2023-05-24T08:42:06;98434.97;;;13.17;100.00
19447;BME280;9862;49.462;11.054;2023-05-24T08:44:37;98427.09;;;13.29;100.00
19447;BME280;9862;49.462;11.054;2023-05-24T08:47:07;98431.09;;;13.13;100.00
19447;BME280;9862;49.462;11.054;2023-05-24T08:49:34;98429.06;;;13.08;100.00
19447;BME280;9862;49.462;11.054;2023-05-24T08:52:03;98431.38;;;12.98;100.00
19447;BME280;9862;49.462;11.054;2023-05-24T08:54:32;98431.84;;;12.82;100.00
19447;BME280;9862;49.462;11.054;2023-05-24T08:56:59;98438.84;;;12.83;100.00
19447;BME280;9862;49.462;11.054;2023-05-24T08:59:26;98435.91;;;12.98;100.00
19447;BME280;9862;49.462;11.054;2023-05-24T09:01:53;98442.91;;;12.92;100.00
19447;BME280;9862;49.462;11.054;2023-05-24T09:04:20;98439.47;;;12.85;100.00
19447;BME280;9862;49.462;11.054;2023-05-24T09:06:47;98443.72;;;12.93;100.00
19447;BME280;9862;49.462;11.054;2023-05-24T09:09:17;98434.66;;;13.00;100.00
19447;BME280;9862;49.462;11.054;2023-05-24T09:11:48;98442.59;;;12.75;100.00
19447;BME280;9862;49.462;11.054;2023-05-24T09:14:17;98444.84;;;12.78;100.00
19447;BME280;9862;49.462;11.054;2023-05-24T09:16:44;98452.47;;;12.68;100.00
19447;BME280;9862;49.462;11.054;2023-05-24T09:19:10;98454.75;;;12.65;100.00
19447;BME280;9862;49.462;11.054;2023-05-24T09:21:38;98464.72;;;12.89;100.00
19447;BME280;9862;49.462;11.054;2023-05-24T09:24:06;98458.88;;;13.05;100.00
19447;BME280;9862;49.462;11.054;2023-05-24T09:26:36;98456.72;;;13.27;100.00
19447;BME280;9862;49.462;11.054;2023-05-24T09:29:05;98462.03;;;13.34;100.00
19447;BME280;9862;49.462;11.054;2023-05-24T09:31:32;98453.31;;;13.45;100.00
19447;BME280;9862;49.462;11.054;2023-05-24T09:33:59;98457.19;;;13.49;100.00
19447;BME280;9862;49.462;11.054;2023-05-24T09:36:26;98456.22;;;13.43;100.00
19447;BME280;9862;49.462;11.054;2023-05-24T09:39:05;98456.44;;;13.42;100.00
19447;BME280;9862;49.462;11.054;2023-05-24T09:41:33;98444.22;;;13.53;100.00
19447;BME280;9862;49.462;11.054;2023-05-24T09:44:01;98457.84;;;13.44;100.00
19447;BME280;9862;49.462;11.054;2023-05-24T09:46:29;98454.50;;;13.49;100.00
19447;BME280;9862;49.462;11.054;2023-05-24T09:49:00;98447.81;;;13.65;100.00
19447;BME280;9862;49.462;11.054;2023-05-24T09:51:30;98449.75;;;13.83;100.00
19447;BME280;9862;49.462;11.054;2023-05-24T09:53:59;98446.66;;;14.04;100.00
19447;BME280;9862;49.462;11.054;2023-05-24T09:56:26;98444.66;;;14.18;100.00
19447;BME280;9862;49.462;11.054;2023-05-24T09:58:53;98448.16;;;14.18;100.00
19447;BME280;9862;49.462;11.054;2023-05-24T10:01:23;98450.25;;;14.16;100.00
19447;BME280;9862;49.462;11.054;2023-05-24T10:03:51;98438.97;;;14.32;100.00
19447;BME280;9862;49.462;11.054;2023-05-24T10:06:18;98441.41;;;14.34;100.00
19447;BME280;9862;49.462;11.054;2023-05-24T10:08:46;98444.78;;;14.29;100.00
19447;BME280;9862;49.462;11.054;2023-05-24T10:11:13;98444.84;;;14.23;100.00
19447;BME280;9862;49.462;11.054;2023-05-24T10:13:40;98433.00;;;14.12;100.00
19447;BME280;9862;49.462;11.054;2023-05-24T10:16:07;98436.44;;;14.19;100.00
19447;BME280;9862;49.462;11.054;2023-05-24T10:18:36;98437.28;;;13.95;100.00
19447;BME280;9862;49.462;11.054;2023-05-24T10:21:04;98442.19;;;13.98;100.00
19447;BME280;9862;49.462;11.054;2023-05-24T10:23:33;98437.41;;;13.82;100.00
19447;BME280;9862;49.462;11.054;2023-05-24T10:26:03;98438.44;;;13.81;100.00
19447;BME280;9862;49.462;11.054;2023-05-24T10:28:33;98439.94;;;13.70;100.00
19447;BME280;9862;49.462;11.054;2023-05-24T10:31:06;98438.59;;;13.86;100.00
19447;BME280;9862;49.462;11.054;2023-05-24T10:33:36;98422.41;;;13.99;100.00
19447;BME280;9862;49.462;11.054;2023-05-24T10:36:06;98431.50;;;13.73;100.00
19447;BME280;9862;49.462;11.054;2023-05-24T10:38:36;98433.03;;;13.62;100.00
19447;BME280;9862;49.462;11.054;2023-05-24T10:41:05;98425.44;;;13.84;100.00
19447;BME280;9862;49.462;11.054;2023-05-24T10:43:33;98430.06;;;13.95;100.00
19447;BME280;9862;49.462;11.054;2023-05-24T10:46:01;98423.34;;;14.11;100.00
19447;BME280;9862;49.462;11.054;2023-05-24T10:48:37;98415.50;;;14.28;100.00
19447;BME280;9862;49.462;11.054;2023-05-24T10:51:29;98412.28;;;14.63;100.00
19447;BME280;9862;49.462;11.054;2023-05-24T10:53:57;98410.59;;;14.98;100.00
19447;BME280;9862;49.462;11.054;2023-05-24T10:56:26;98419.34;;;14.57;100.00
19447;BME280;9862;49.462;11.054;2023-05-24T10:58:59;98428.84;;;14.35;100.00
19447;BME280;9862;49.462;11.054;2023-05-24T11:01:28;98421.06;;;14.51;100.00
19447;BME280;9862;49.462;11.054;2023-05-24T11:04:07;98426.78;;;14.55;100.00
19447;BME280;9862;49.462;11.054;2023-05-24T11:06:47;98422.69;;;14.52;100.00
19447;BME280;9862;49.462;11.054;2023-05-24T11:09:15;98423.06;;;14.56;100.00
19447;BME280;9862;49.462;11.054;2023-05-24T11:11:45;98418.16;;;14.53;100.00
19447;BME280;9862;49.462;11.054;2023-05-24T11:14:17;98420.75;;;14.78;100.00
19447;BME280;9862;49.462;11.054;2023-05-24T11:16:45;98423.59;;;14.95;100.00
19447;BME280;9862;49.462;11.054;2023-05-24T11:19:18;98415.66;;;15.18;100.00
19447;BME280;9862;49.462;11.054;2023-05-24T11:21:46;98407.47;;;15.55;96.43
19447;BME280;9862;49.462;11.054;2023-05-24T11:24:15;98412.13;;;15.59;96.00
19447;BME280;9862;49.462;11.054;2023-05-24T11:26:42;98408.81;;;15.64;97.32
19447;BME280;9862;49.462;11.054;2023-05-24T11:29:12;98414.16;;;15.22;97.42
19447;BME280;9862;49.462;11.054;2023-05-24T11:31:46;98412.47;;;14.79;100.00
19447;BME280;9862;49.462;11.054;2023-05-24T11:34:13;98407.13;;;14.79;100.00
19447;BME280;9862;49.462;11.054;2023-05-24T11:36:42;98415.84;;;15.05;100.00
19447;BME280;9862;49.462;11.054;2023-05-24T11:39:09;98414.94;;;15.11;100.00
19447;BME280;9862;49.462;11.054;2023-05-24T11:41:37;98413.66;;;15.13;100.00
19447;BME280;9862;49.462;11.054;2023-05-24T11:44:04;98407.03;;;15.16;99.91
19447;BME280;9862;49.462;11.054;2023-05-24T11:46:31;98415.75;;;15.11;99.07
19447;BME280;9862;49.462;11.054;2023-05-24T11:48:58;98412.41;;;15.16;100.00
19447;BME280;9862;49.462;11.054;2023-05-24T11:51:26;98414.88;;;15.41;99.64
19447;BME280;9862;49.462;11.054;2023-05-24T11:53:54;98411.88;;;15.37;100.00
19447;BME280;9862;49.462;11.054;2023-05-24T11:56:21;98404.16;;;15.41;100.00
19447;BME280;9862;49.462;11.054;2023-05-24T11:58:48;98399.31;;;15.61;100.00
19447;BME280;9862;49.462;11.054;2023-05-24T12:01:23;98394.34;;;15.65;100.00
19447;BME280;9862;49.462;11.054;2023-05-24T12:03:50;98401.31;;;15.66;94.47
19447;BME280;9862;49.462;11.054;2023-05-24T12:06:17;98398.75;;;15.71;98.01
19447;BME280;9862;49.462;11.054;2023-05-24T12:08:44;98402.50;;;15.70;96.33
19447;BME280;9862;49.462;11.054;2023-05-24T12:11:12;98400.84;;;15.69;88.43
19447;BME280;9862;49.462;11.054;2023-05-24T12:13:39;98394.56;;;15.75;86.83
19447;BME280;9862;49.462;11.054;2023-05-24T12:16:05;98384.75;;;15.81;83.57
19447;BME280;9862;49.462;11.054;2023-05-24T12:18:32;98396.44;;;15.74;83.50
19447;BME280;9862;49.462;11.054;2023-05-24T12:20:59;98387.53;;;15.62;84.01
19447;BME280;9862;49.462;11.054;2023-05-24T12:23:26;98394.94;;;15.25;84.38
19447;BME280;9862;49.462;11.054;2023-05-24T12:25:59;98382.22;;;15.32;85.88
19447;BME280;9862;49.462;11.054;2023-05-24T12:28:31;98374.81;;;15.46;88.77
19447;BME280;9862;49.462;11.054;2023-05-24T12:31:00;98376.47;;;15.70;92.62
19447;BME280;9862;49.462;11.054;2023-05-24T12:33:27;98376.00;;;15.97;92.86
19447;BME280;9862;49.462;11.054;2023-05-24T12:35:54;98382.06;;;16.16;91.18
19447;BME280;9862;49.462;11.054;2023-05-24T12:38:22;98373.94;;;16.39;91.15
19447;BME280;9862;49.462;11.054;2023-05-24T12:40:50;98370.63;;;16.60;78.96
19447;BME280;9862;49.462;11.054;2023-05-24T12:43:18;98368.50;;;16.63;75.43
19447;BME280;9862;49.462;11.054;2023-05-24T12:45:46;98366.53;;;16.58;78.23
19447;BME280;9862;49.462;11.054;2023-05-24T12:48:13;98365.25;;;16.60;83.18
19447;BME280;9862;49.462;11.054;2023-05-24T12:50:39;98361.56;;;16.78;84.23
19447;BME280;9862;49.462;11.054;2023-05-24T12:53:06;98359.50;;;16.97;82.54
19447;BME280;9862;49.462;11.054;2023-05-24T12:55:33;98340.47;;;17.15;84.07